Time;durP1;ratioP1;P1;durP2;ratioP2;P2;SDS_P1;SDS_P2;PMS_P1;PMS_P2;Temp;Humidity;BMP_temperature;BMP_pressure;BME280_temperature;BME280_humidity;BME280_pressure;Samples;Min_cycle;Max_cycle;Signal;HPM_P1;HPM_P2
2022/06/05 00:01:38;;;;;;;;;;;;;;;20.41;38.43;101824.47;5021736;28;98297;-78
2022/06/05 00:04:10;;;;;;;;;;;;;;;20.15;38.97;101821.44;5020157;28;99059;-79
2022/06/05 00:06:40;;;;;;;;;;;;;;;20.00;39.99;101827.72;5029065;28;99002;-79
2022/06/05 00:09:12;;;;;;;;;;;;;;;19.96;39.78;101826.16;5018423;28;96818;-77
2022/06/05 00:11:44;;;;;;;;;;;;;;;19.72;40.69;101820.38;5028687;28;96887;-79
2022/06/05 00:14:11;;;;;;;;;;;;;;;19.77;40.68;101820.13;5013994;28;97885;-79
2022/06/05 00:16:37;;;;;;;;;;;;;;;19.22;41.71;101833.88;5015654;28;98865;-79
2022/06/05 00:19:04;;;;;;;;;;;;;;;19.27;42.09;101823.78;5015904;28;96694;-79
2022/06/05 00:21:31;;;;;;;;;;;;;;;19.07;42.47;101824.84;5005676;28;96812;-79
2022/06/05 00:23:57;;;;;;;;;;;;;;;19.26;42.06;101824.72;5028191;28;98025;-80
2022/06/05 00:26:26;;;;;;;;;;;;;;;19.49;41.30;101812.78;5009101;28;102145;-79
2022/06/05 00:28:57;;;;;;;;;;;;;;;19.62;41.26;101818.31;5028495;28;96915;-79
2022/06/05 00:31:27;;;;;;;;;;;;;;;19.32;41.95;101827.06;5019717;28;96863;-79
2022/06/05 00:33:53;;;;;;;;;;;;;;;18.96;43.14;101816.53;5008761;28;98973;-79
2022/06/05 00:36:28;;;;;;;;;;;;;;;19.02;42.95;101829.59;5005747;28;98880;-80
2022/06/05 00:39:00;;;;;;;;;;;;;;;18.60;44.15;101830.03;5004742;28;97110;-79
2022/06/05 00:41:44;;;;;;;;;;;;;;;18.78;43.90;101833.56;5001349;28;97618;-77
2022/06/05 00:44:12;;;;;;;;;;;;;;;18.71;44.11;101830.34;5001409;28;99380;-79
2022/06/05 00:46:39;;;;;;;;;;;;;;;18.41;44.85;101828.34;5000604;28;101807;-79
2022/06/05 00:49:07;;;;;;;;;;;;;;;18.80;43.98;101825.47;5008893;28;96887;-79
2022/06/05 00:51:33;;;;;;;;;;;;;;;18.50;44.68;101820.75;5002918;28;98938;-81
2022/06/05 00:54:01;;;;;;;;;;;;;;;18.80;44.31;101826.31;5004078;28;99148;-82
2022/06/05 00:56:27;;;;;;;;;;;;;;;19.02;43.50;101832.28;5007986;28;97240;-81
2022/06/05 00:58:54;;;;;;;;;;;;;;;18.51;44.74;101835.81;5008457;28;96763;-81
2022/06/05 01:01:20;;;;;;;;;;;;;;;18.20;45.63;101822.28;5007417;28;96913;-81
2022/06/05 01:03:48;;;;;;;;;;;;;;;18.13;46.14;101829.75;5007026;28;118711;-81
2022/06/05 01:06:15;;;;;;;;;;;;;;;18.37;45.47;101830.34;5012557;28;101139;-80
2022/06/05 01:08:41;;;;;;;;;;;;;;;18.54;44.96;101829.47;5022792;28;97005;-79
2022/06/05 01:11:15;;;;;;;;;;;;;;;17.97;46.24;101826.09;5006897;28;98739;-79
2022/06/05 01:13:45;;;;;;;;;;;;;;;18.53;45.13;101831.25;5005838;28;96900;-81
2022/06/05 01:16:18;;;;;;;;;;;;;;;18.58;44.94;101823.03;5007418;28;98767;-82
2022/06/05 01:18:50;;;;;;;;;;;;;;;18.99;44.31;101835.13;5016635;28;97010;-81
2022/06/05 01:21:27;;;;;;;;;;;;;;;18.64;44.96;101833.44;5012713;28;96804;-80
2022/06/05 01:24:02;;;;;;;;;;;;;;;18.54;45.13;101835.69;5007869;28;99168;-80
2022/06/05 01:26:31;;;;;;;;;;;;;;;18.87;44.71;101834.91;5008902;28;97672;-80
2022/06/05 01:29:02;;;;;;;;;;;;;;;18.86;44.82;101834.03;5008932;28;96889;-79
2022/06/05 01:31:31;;;;;;;;;;;;;;;18.98;44.59;101827.16;5017799;28;96903;-79
2022/06/05 01:34:05;;;;;;;;;;;;;;;19.06;44.46;101827.63;5003743;28;101670;-80
2022/06/05 01:36:35;;;;;;;;;;;;;;;18.84;44.88;101827.88;5007629;28;97855;-79
2022/06/05 01:39:07;;;;;;;;;;;;;;;18.75;45.20;101823.03;5011674;28;97679;-80
2022/06/05 01:41:37;;;;;;;;;;;;;;;18.89;44.89;101820.50;5003700;28;96992;-80
2022/06/05 01:44:06;;;;;;;;;;;;;;;19.01;44.84;101810.94;5009360;28;98985;-80
2022/06/05 01:46:34;;;;;;;;;;;;;;;18.78;45.55;101816.63;5011959;28;98867;-79
2022/06/05 01:49:03;;;;;;;;;;;;;;;18.63;45.87;101816.50;5010070;28;97256;-79
2022/06/05 01:51:32;;;;;;;;;;;;;;;18.68;45.94;101811.78;5010974;28;96978;-79
2022/06/05 01:54:00;;;;;;;;;;;;;;;18.50;46.41;101807.34;5007944;28;98901;-80
2022/06/05 01:56:28;;;;;;;;;;;;;;;18.86;45.73;101801.03;5009357;28;99770;-81
2022/06/05 01:59:00;;;;;;;;;;;;;;;19.33;44.41;101803.81;5009624;28;96841;-79
2022/06/05 02:01:29;;;;;;;;;;;;;;;18.97;45.12;101806.69;5009306;28;96997;-80
2022/06/05 02:03:57;;;;;;;;;;;;;;;18.91;45.50;101798.97;5017340;28;98193;-79
2022/06/05 02:06:27;;;;;;;;;;;;;;;19.19;44.76;101799.22;5024689;28;97875;-80
2022/06/05 02:08:55;;;;;;;;;;;;;;;19.31;44.62;101793.16;5038456;28;96705;-82
2022/06/05 02:11:23;;;;;;;;;;;;;;;19.32;44.45;101794.91;5029222;28;96850;-80
2022/06/05 02:13:50;;;;;;;;;;;;;;;19.31;44.93;101795.84;5026090;28;98894;-81
2022/06/05 02:16:17;;;;;;;;;;;;;;;19.13;45.00;101799.53;5029523;28;98835;-80
2022/06/05 02:18:44;;;;;;;;;;;;;;;18.62;46.88;101805.88;5030318;28;96621;-81
2022/06/05 02:21:10;;;;;;;;;;;;;;;18.78;47.03;101805.91;5020957;28;96926;-80
2022/06/05 02:23:38;;;;;;;;;;;;;;;18.69;46.77;101794.78;5010791;28;97710;-80
2022/06/05 02:26:06;;;;;;;;;;;;;;;18.96;46.62;101789.75;5006284;28;97048;-80
2022/06/05 02:28:32;;;;;;;;;;;;;;;18.83;47.07;101796.72;5015245;28;98167;-80
2022/06/05 02:31:04;;;;;;;;;;;;;;;18.34;48.66;101793.03;5015031;28;97207;-80
2022/06/05 02:33:37;;;;;;;;;;;;;;;18.27;49.60;101794.28;5006567;28;98017;-80
2022/06/05 02:36:07;;;;;;;;;;;;;;;18.19;49.82;101802.69;5013301;28;99034;-80
2022/06/05 02:38:42;;;;;;;;;;;;;;;18.30;49.25;101794.13;5009252;28;97236;-80
2022/06/05 02:41:10;;;;;;;;;;;;;;;18.35;49.17;101791.22;5008461;28;96931;-81
2022/06/05 02:43:42;;;;;;;;;;;;;;;18.19;49.41;101793.78;5008719;28;97834;-81
2022/06/05 02:46:11;;;;;;;;;;;;;;;18.67;48.42;101791.31;5012382;28;98823;-82
2022/06/05 02:48:43;;;;;;;;;;;;;;;18.11;47.76;101794.19;5017438;28;96866;-81
2022/06/05 02:51:13;;;;;;;;;;;;;;;18.37;47.88;101797.34;5011689;28;96860;-81
2022/06/05 02:53:47;;;;;;;;;;;;;;;18.53;47.04;101793.78;5012512;28;98160;-80
2022/06/05 02:56:13;;;;;;;;;;;;;;;18.05;48.28;101786.47;5010587;28;98744;-82
2022/06/05 02:58:39;;;;;;;;;;;;;;;17.70;49.17;101790.88;5018283;28;98266;-82
2022/06/05 03:03:51;;;;;;;;;;;;;;;17.69;49.34;101783.81;5010077;28;97040;-81
2022/06/05 03:06:17;;;;;;;;;;;;;;;17.47;49.90;101777.72;5013336;28;100600;-82
2022/06/05 03:08:43;;;;;;;;;;;;;;;17.90;49.16;101779.22;5015561;28;97034;-82
2022/06/05 03:11:09;;;;;;;;;;;;;;;18.29;47.87;101785.22;5017240;28;96845;-82
2022/06/05 03:13:36;;;;;;;;;;;;;;;18.18;47.98;101776.03;5013843;28;99380;-82
2022/06/05 03:16:02;;;;;;;;;;;;;;;18.04;48.62;101781.22;5018078;28;96799;-82
2022/06/05 03:18:28;;;;;;;;;;;;;;;17.96;48.84;101783.41;5012690;28;96916;-78
2022/06/05 03:20:57;;;;;;;;;;;;;;;17.98;48.77;101786.88;5016533;28;97118;-77
2022/06/05 03:23:25;;;;;;;;;;;;;;;18.06;48.42;101785.50;5016304;28;99743;-77
2022/06/05 03:25:51;;;;;;;;;;;;;;;18.11;48.43;101782.63;5003899;28;98896;-78
2022/06/05 03:28:17;;;;;;;;;;;;;;;18.02;48.45;101788.44;5000184;28;99381;-78
2022/06/05 03:30:44;;;;;;;;;;;;;;;18.51;47.24;101798.34;5005358;28;96849;-78
2022/06/05 03:33:11;;;;;;;;;;;;;;;18.11;48.32;101788.84;5010307;28;98994;-79
2022/06/05 03:35:37;;;;;;;;;;;;;;;18.25;47.98;101793.47;5009292;28;98830;-78
2022/06/05 03:38:05;;;;;;;;;;;;;;;18.70;46.72;101801.88;5009303;28;96864;-77
2022/06/05 03:40:32;;;;;;;;;;;;;;;18.85;46.47;101801.97;5002139;28;96929;-78
2022/06/05 03:42:58;;;;;;;;;;;;;;;18.64;46.77;101812.03;5008285;28;98833;-78
2022/06/05 03:45:24;;;;;;;;;;;;;;;18.62;46.81;101805.88;5012230;28;99035;-77
2022/06/05 03:47:51;;;;;;;;;;;;;;;18.85;46.25;101804.66;5005832;28;98857;-78
2022/06/05 03:50:18;;;;;;;;;;;;;;;18.74;46.60;101807.91;5009583;28;96896;-78
2022/06/05 03:52:45;;;;;;;;;;;;;;;18.33;47.53;101807.34;5013418;28;98885;-79
2022/06/05 03:55:14;;;;;;;;;;;;;;;18.47;47.46;101799.47;5007815;28;99126;-79
2022/06/05 03:57:41;;;;;;;;;;;;;;;18.66;47.00;101800.28;5016866;28;97283;-78
2022/06/05 04:00:09;;;;;;;;;;;;;;;18.43;47.62;101797.91;5019023;28;96903;-79
2022/06/05 04:02:35;;;;;;;;;;;;;;;18.47;47.19;101788.75;5007710;28;97704;-80
2022/06/05 04:05:02;;;;;;;;;;;;;;;18.12;48.02;101777.19;5022936;28;97801;-79
2022/06/05 04:07:28;;;;;;;;;;;;;;;17.92;48.09;101775.50;5006887;28;96790;-80
2022/06/05 04:09:54;;;;;;;;;;;;;;;18.19;47.61;101775.94;5019318;28;96930;-80
2022/06/05 04:12:22;;;;;;;;;;;;;;;17.97;47.63;101786.00;5004358;28;99098;-80
2022/06/05 04:14:48;;;;;;;;;;;;;;;17.81;48.09;101785.00;5009429;28;99012;-79
2022/06/05 04:17:15;;;;;;;;;;;;;;;18.22;47.21;101788.31;5010762;28;97756;-80
2022/06/05 04:19:41;;;;;;;;;;;;;;;18.80;45.43;101794.19;5009801;28;96889;-79
2022/06/05 04:22:07;;;;;;;;;;;;;;;19.13;44.66;101796.00;5012993;28;99021;-79
2022/06/05 04:24:34;;;;;;;;;;;;;;;18.96;45.21;101796.94;5012636;28;97888;-78
2022/06/05 04:27:00;;;;;;;;;;;;;;;18.42;46.39;101801.53;5005323;28;97342;-79
2022/06/05 04:29:28;;;;;;;;;;;;;;;18.79;45.49;101794.25;5017002;28;96919;-79
2022/06/05 04:31:54;;;;;;;;;;;;;;;18.16;46.92;101789.47;5008377;28;99506;-80
2022/06/05 04:34:22;;;;;;;;;;;;;;;18.52;46.21;101786.72;5004931;28;99119;-79
2022/06/05 04:36:49;;;;;;;;;;;;;;;18.34;46.60;101785.00;4998647;28;97256;-79
2022/06/05 04:39:15;;;;;;;;;;;;;;;17.92;47.66;101774.63;5008138;28;96809;-79
2022/06/05 04:41:42;;;;;;;;;;;;;;;18.02;47.29;101775.06;5011819;28;98978;-79
2022/06/05 04:44:09;;;;;;;;;;;;;;;18.80;45.23;101778.13;5011053;28;99957;-78
2022/06/05 04:46:37;;;;;;;;;;;;;;;18.76;44.97;101773.91;5011299;28;96858;-79
2022/06/05 04:49:04;;;;;;;;;;;;;;;18.67;45.67;101767.22;5007161;28;97079;-79
2022/06/05 04:51:30;;;;;;;;;;;;;;;19.03;45.01;101758.16;5007218;28;98885;-79
2022/06/05 04:53:57;;;;;;;;;;;;;;;20.12;42.38;101748.31;5006043;28;98982;-79
2022/06/05 04:56:25;;;;;;;;;;;;;;;23.84;35.01;101745.56;5012612;28;97322;-81
2022/06/05 04:58:51;;;;;;;;;;;;;;;24.52;32.73;101744.84;5003596;28;96915;-80
2022/06/05 05:01:19;;;;;;;;;;;;;;;26.11;30.06;101738.13;5007676;28;99563;-79
2022/06/05 05:03:47;;;;;;;;;;;;;;;27.74;27.49;101738.94;5017059;28;99148;-81
2022/06/05 05:06:14;;;;;;;;;;;;;;;27.71;27.46;101738.34;5009905;28;96933;-81
2022/06/05 05:08:40;;;;;;;;;;;;;;;27.74;27.37;101729.94;5009838;28;96850;-82
2022/06/05 05:11:06;;;;;;;;;;;;;;;29.22;25.26;101732.94;5014498;28;98254;-81
2022/06/05 05:13:33;;;;;;;;;;;;;;;28.39;26.24;101750.09;5018938;28;99117;-81
2022/06/05 05:15:59;;;;;;;;;;;;;;;25.83;29.74;101755.00;5011813;28;96724;-82
2022/06/05 05:18:25;;;;;;;;;;;;;;;24.80;31.89;101756.19;5009143;28;96802;-81
2022/06/05 05:20:53;;;;;;;;;;;;;;;23.60;33.90;101752.78;5020011;28;98905;-81
2022/06/05 05:23:20;;;;;;;;;;;;;;;22.03;36.98;101744.22;5007692;28;98179;-82
2022/06/05 05:25:46;;;;;;;;;;;;;;;21.73;37.73;101739.00;5016086;28;97184;-81
2022/06/05 05:28:13;;;;;;;;;;;;;;;22.00;37.42;101740.84;5020625;27;96746;-80
2022/06/05 05:30:42;;;;;;;;;;;;;;;22.24;37.24;101739.19;5011259;28;98035;-79
2022/06/05 05:33:09;;;;;;;;;;;;;;;22.27;36.87;101741.66;5012546;28;98689;-81
2022/06/05 05:35:35;;;;;;;;;;;;;;;22.35;36.87;101742.00;5007289;28;96840;-80
2022/06/05 05:38:02;;;;;;;;;;;;;;;22.41;36.60;101740.72;5013182;28;97029;-80
2022/06/05 05:43:13;;;;;;;;;;;;;;;21.85;37.49;101726.59;5009763;28;97079;-82
2022/06/05 05:45:39;;;;;;;;;;;;;;;21.82;37.91;101724.97;5012820;28;97135;-83
2022/06/05 05:48:05;;;;;;;;;;;;;;;21.69;38.24;101718.69;5018296;28;97412;-83
2022/06/05 05:50:31;;;;;;;;;;;;;;;21.90;37.90;101716.38;5012767;28;99222;-83
2022/06/05 05:52:58;;;;;;;;;;;;;;;21.52;38.63;101705.50;5008093;28;97510;-80
2022/06/05 05:55:25;;;;;;;;;;;;;;;22.05;38.06;101706.44;5013468;28;97058;-79
2022/06/05 05:57:52;;;;;;;;;;;;;;;21.78;38.34;101701.94;5012735;28;97100;-78
2022/06/05 06:00:19;;;;;;;;;;;;;;;21.49;39.03;101703.00;5003771;28;98795;-78
2022/06/05 06:02:46;;;;;;;;;;;;;;;21.07;40.03;101707.47;5028175;28;98613;-78
2022/06/05 06:05:13;;;;;;;;;;;;;;;21.46;39.30;101711.28;5036340;28;96744;-78
2022/06/05 06:07:39;;;;;;;;;;;;;;;21.94;38.39;101708.94;5029000;28;97806;-79
2022/06/05 06:10:07;;;;;;;;;;;;;;;22.69;36.83;101708.19;5017079;28;98773;-78
2022/06/05 06:12:35;;;;;;;;;;;;;;;22.93;36.19;101717.25;5010174;28;98971;-79
2022/06/05 06:15:01;;;;;;;;;;;;;;;23.63;35.25;101705.84;5008669;28;97701;-79
2022/06/05 06:17:27;;;;;;;;;;;;;;;23.56;35.25;101705.47;5006489;28;96969;-78
2022/06/05 06:19:53;;;;;;;;;;;;;;;23.96;34.25;101714.06;5010497;28;98915;-79
2022/06/05 06:22:20;;;;;;;;;;;;;;;23.96;34.21;101710.53;5012136;28;98778;-78
2022/06/05 06:24:46;;;;;;;;;;;;;;;23.82;34.56;101711.59;5017189;28;98630;-78
2022/06/05 06:27:13;;;;;;;;;;;;;;;23.98;34.32;101717.53;5005011;28;96890;-78
2022/06/05 06:29:40;;;;;;;;;;;;;;;24.19;33.88;101715.03;5009976;28;97768;-79
2022/06/05 06:32:07;;;;;;;;;;;;;;;24.31;33.78;101711.38;5015343;28;98895;-80
2022/06/05 06:34:34;;;;;;;;;;;;;;;24.73;33.24;101706.28;5013821;28;97047;-79
2022/06/05 06:37:00;;;;;;;;;;;;;;;25.68;31.48;101709.25;5010613;28;97263;-79
2022/06/05 06:39:28;;;;;;;;;;;;;;;25.55;31.41;101703.13;5007577;28;98831;-78
2022/06/05 06:41:54;;;;;;;;;;;;;;;25.78;31.33;101704.81;5007593;28;98790;-78
2022/06/05 06:44:21;;;;;;;;;;;;;;;25.67;31.32;101706.69;5014023;28;96959;-77
2022/06/05 06:46:48;;;;;;;;;;;;;;;25.40;32.19;101707.13;5005992;28;96842;-78
2022/06/05 06:49:15;;;;;;;;;;;;;;;25.17;32.81;101708.13;5019152;28;98741;-79
2022/06/05 06:51:41;;;;;;;;;;;;;;;25.64;32.32;101702.41;5015114;28;97199;-77
2022/06/05 06:54:08;;;;;;;;;;;;;;;25.20;32.69;101703.34;5015546;28;96933;-78
2022/06/05 06:56:35;;;;;;;;;;;;;;;24.94;33.05;101705.44;5013841;28;96892;-78
2022/06/05 06:59:02;;;;;;;;;;;;;;;24.89;33.27;101704.06;5006995;28;98856;-79
2022/06/05 07:01:28;;;;;;;;;;;;;;;24.68;34.07;101705.81;5006116;28;98765;-78
2022/06/05 07:03:56;;;;;;;;;;;;;;;24.64;33.68;101705.16;5017606;28;97065;-79
2022/06/05 07:06:23;;;;;;;;;;;;;;;25.05;33.33;101696.47;5015227;28;96950;-78
2022/06/05 07:08:50;;;;;;;;;;;;;;;25.30;32.73;101698.03;5011292;28;101937;-79
2022/06/05 07:11:16;;;;;;;;;;;;;;;25.42;32.80;101697.00;5011979;28;98421;-78
2022/06/05 07:13:43;;;;;;;;;;;;;;;25.58;32.17;101681.25;5011814;28;96893;-78
2022/06/05 07:16:10;;;;;;;;;;;;;;;25.94;31.89;101698.06;5016118;28;96906;-79
2022/06/05 07:18:36;;;;;;;;;;;;;;;25.88;32.37;101694.03;5012854;28;99577;-78
2022/06/05 07:21:08;;;;;;;;;;;;;;;26.07;31.74;101691.47;5017425;28;101054;-77
2022/06/05 07:23:35;;;;;;;;;;;;;;;26.07;31.46;101686.06;5017238;28;97199;-78
2022/06/05 07:26:01;;;;;;;;;;;;;;;26.33;31.16;101683.84;5011464;27;97139;-79
2022/06/05 07:28:27;;;;;;;;;;;;;;;26.51;30.87;101687.69;5009155;28;99182;-78
2022/06/05 07:30:53;;;;;;;;;;;;;;;25.71;32.17;101673.84;5008721;28;98953;-79
2022/06/05 07:33:20;;;;;;;;;;;;;;;25.53;33.01;101669.94;5007283;28;97990;-78
2022/06/05 07:35:46;;;;;;;;;;;;;;;26.10;31.78;101669.56;5005057;28;97373;-81
2022/06/05 07:38:13;;;;;;;;;;;;;;;26.13;31.19;101661.16;5004760;28;99173;-79
2022/06/05 07:40:40;;;;;;;;;;;;;;;25.93;31.45;101656.59;5007980;28;101376;-81
2022/06/05 07:43:07;;;;;;;;;;;;;;;26.15;31.23;101652.91;5007964;28;96832;-79
2022/06/05 07:45:33;;;;;;;;;;;;;;;26.71;30.39;101645.25;5010873;28;97473;-79
2022/06/05 07:47:59;;;;;;;;;;;;;;;25.87;31.95;101649.00;5004394;28;99064;-79
2022/06/05 07:50:25;;;;;;;;;;;;;;;26.06;30.95;101648.28;5011686;28;98747;-79
2022/06/05 07:55:37;;;;;;;;;;;;;;;25.96;31.36;101647.38;5006832;28;96921;-78
2022/06/05 07:58:03;;;;;;;;;;;;;;;26.61;30.21;101638.06;5005906;28;98902;-79
2022/06/05 08:00:31;;;;;;;;;;;;;;;26.61;30.15;101638.06;5003579;28;98925;-80
2022/06/05 08:02:57;;;;;;;;;;;;;;;26.38;30.38;101643.69;5009976;28;96866;-80
2022/06/05 08:05:24;;;;;;;;;;;;;;;26.90;29.75;101634.50;5005642;28;97016;-78
2022/06/05 08:07:50;;;;;;;;;;;;;;;26.97;30.07;101634.81;5014195;28;99102;-78
2022/06/05 08:10:16;;;;;;;;;;;;;;;27.48;29.22;101637.31;5005523;28;101623;-78
2022/06/05 08:12:44;;;;;;;;;;;;;;;27.19;29.80;101639.97;5020059;28;97012;-77
2022/06/05 08:15:13;;;;;;;;;;;;;;;27.42;29.17;101639.72;5016071;28;96913;-78
2022/06/05 08:17:40;;;;;;;;;;;;;;;27.31;28.97;101617.13;5014704;28;97327;-77
2022/06/05 08:20:07;;;;;;;;;;;;;;;27.15;28.86;101622.28;5011097;28;98873;-79
2022/06/05 08:22:33;;;;;;;;;;;;;;;27.47;28.85;101627.44;5007435;28;97173;-77
2022/06/05 08:25:00;;;;;;;;;;;;;;;27.57;28.36;101628.31;5017458;28;98394;-78
2022/06/05 08:27:27;;;;;;;;;;;;;;;27.65;28.27;101619.47;5009281;28;98905;-78
2022/06/05 08:29:56;;;;;;;;;;;;;;;27.43;28.25;101619.72;5008034;28;98883;-77
2022/06/05 08:32:23;;;;;;;;;;;;;;;27.14;29.05;101615.13;5005061;28;98545;-80
2022/06/05 08:34:49;;;;;;;;;;;;;;;27.59;28.30;101622.75;5006559;28;96847;-81
2022/06/05 08:43:02;;;;;;;;;;;;;;;27.73;26.49;101600.59;5005980;28;97446;-79
2022/06/05 08:45:34;;;;;;;;;;;;;;;27.89;27.19;101592.72;5010886;28;96960;-79
2022/06/05 08:48:06;;;;;;;;;;;;;;;27.36;28.10;101597.72;5002170;28;100623;-78
2022/06/05 08:50:35;;;;;;;;;;;;;;;27.32;27.74;101594.44;5006672;28;98807;-78
2022/06/05 08:53:06;;;;;;;;;;;;;;;27.55;28.01;101592.34;5005748;28;98663;-77
2022/06/05 08:55:34;;;;;;;;;;;;;;;27.78;27.34;101601.00;5003040;28;96965;-76
2022/06/05 08:58:03;;;;;;;;;;;;;;;27.77;26.78;101588.44;5006595;28;98685;-78
2022/06/05 09:00:35;;;;;;;;;;;;;;;27.70;27.02;101580.00;5008157;28;98675;-80
2022/06/05 09:03:03;;;;;;;;;;;;;;;27.66;27.29;101584.03;5008228;28;97497;-81
2022/06/05 09:05:32;;;;;;;;;;;;;;;27.65;27.16;101581.44;5011411;27;96961;-79
2022/06/05 09:08:00;;;;;;;;;;;;;;;27.85;27.08;101590.44;5006173;28;99531;-80
2022/06/05 09:10:32;;;;;;;;;;;;;;;27.36;27.05;101585.03;5017562;28;98647;-80
2022/06/05 09:13:00;;;;;;;;;;;;;;;27.83;26.46;101581.59;5011849;28;97124;-83
2022/06/05 09:15:28;;;;;;;;;;;;;;;27.63;26.57;101583.47;5012482;28;96789;-78
2022/06/05 09:17:57;;;;;;;;;;;;;;;28.02;26.07;101579.69;5014162;28;98996;-79
2022/06/05 09:20:27;;;;;;;;;;;;;;;28.24;25.93;101573.03;5005438;28;97719;-80
2022/06/05 09:22:59;;;;;;;;;;;;;;;28.88;25.23;101570.31;5009331;28;97070;-80
2022/06/05 09:25:39;;;;;;;;;;;;;;;28.44;25.32;101571.97;5005934;28;97449;-80
2022/06/05 09:28:14;;;;;;;;;;;;;;;28.57;24.82;101568.03;5003140;28;96952;-80
2022/06/05 09:30:45;;;;;;;;;;;;;;;28.10;26.29;101565.34;5003697;28;99118;-80
2022/06/05 09:33:16;;;;;;;;;;;;;;;27.90;26.05;101563.69;5007759;28;97073;-81
2022/06/05 09:35:46;;;;;;;;;;;;;;;28.12;24.96;101561.47;5011226;28;96840;-82
2022/06/05 09:38:15;;;;;;;;;;;;;;;27.85;25.41;101560.56;5005106;28;99795;-78
2022/06/05 09:40:48;;;;;;;;;;;;;;;28.10;25.38;101554.47;5005670;28;98693;-76
2022/06/05 09:43:26;;;;;;;;;;;;;;;28.16;25.66;101553.06;5006503;28;96913;-79
2022/06/05 09:46:00;;;;;;;;;;;;;;;28.62;25.58;101550.25;5004062;28;96878;-80
2022/06/05 09:48:35;;;;;;;;;;;;;;;28.16;26.01;101544.94;5003497;28;99219;-77
2022/06/05 09:51:02;;;;;;;;;;;;;;;28.74;25.66;101540.94;5006818;28;98883;-79
2022/06/05 09:53:30;;;;;;;;;;;;;;;28.30;25.55;101539.84;5010251;28;96986;-79
2022/06/05 09:56:02;;;;;;;;;;;;;;;28.51;25.63;101543.16;5002564;28;97005;-75
2022/06/05 09:58:39;;;;;;;;;;;;;;;28.53;25.89;101534.88;5002855;28;99385;-77
2022/06/05 10:01:20;;;;;;;;;;;;;;;28.67;25.45;101547.09;5008180;28;98809;-81
2022/06/05 10:03:48;;;;;;;;;;;;;;;28.49;25.81;101541.59;5003366;28;97376;-79
2022/06/05 10:06:19;;;;;;;;;;;;;;;27.98;26.69;101540.22;5002367;28;97044;-78
2022/06/05 10:08:49;;;;;;;;;;;;;;;27.55;26.99;101543.47;5007385;28;99052;-80
2022/06/05 10:11:23;;;;;;;;;;;;;;;27.95;26.45;101539.66;5005841;28;99205;-79
2022/06/05 10:13:52;;;;;;;;;;;;;;;28.27;25.88;101523.00;5004098;28;96996;-79
2022/06/05 10:16:24;;;;;;;;;;;;;;;28.18;26.02;101521.16;5014183;28;97071;-80
2022/06/05 10:18:52;;;;;;;;;;;;;;;28.39;26.29;101514.47;5009593;28;98925;-80
2022/06/05 10:21:22;;;;;;;;;;;;;;;28.45;25.98;101518.44;5010432;28;98742;-79
2022/06/05 10:23:51;;;;;;;;;;;;;;;28.79;26.00;101519.56;5009771;28;96923;-81
2022/06/05 10:26:25;;;;;;;;;;;;;;;28.11;26.04;101512.72;5011123;28;96936;-80
2022/06/05 10:28:52;;;;;;;;;;;;;;;28.32;26.60;101513.38;5011567;28;99361;-80
2022/06/05 10:31:25;;;;;;;;;;;;;;;27.61;26.96;101510.31;5006939;28;98659;-79
2022/06/05 10:33:54;;;;;;;;;;;;;;;28.21;26.23;101501.84;5022406;28;96958;-79
2022/06/05 10:36:23;;;;;;;;;;;;;;;28.82;25.71;101499.34;5021730;28;96948;-80
2022/06/05 10:38:55;;;;;;;;;;;;;;;28.79;25.95;101492.38;5035977;28;98292;-81
2022/06/05 10:41:25;;;;;;;;;;;;;;;28.82;26.26;101497.47;5026144;28;98001;-81
2022/06/05 10:44:05;;;;;;;;;;;;;;;29.03;26.37;101499.03;5030893;27;97793;-80
2022/06/05 10:46:32;;;;;;;;;;;;;;;29.20;26.13;101490.91;5026970;28;97814;-80
2022/06/05 10:49:02;;;;;;;;;;;;;;;29.33;25.77;101482.31;5013223;28;99669;-80
2022/06/05 10:51:32;;;;;;;;;;;;;;;29.29;26.17;101467.28;5009840;28;99042;-79
2022/06/05 10:54:03;;;;;;;;;;;;;;;28.83;26.24;101477.44;5010335;28;96755;-80
2022/06/05 10:56:34;;;;;;;;;;;;;;;28.40;26.89;101469.13;5008973;28;97893;-78
2022/06/05 10:59:06;;;;;;;;;;;;;;;28.59;27.16;101463.56;5008825;28;98967;-79
2022/06/05 11:01:42;;;;;;;;;;;;;;;28.62;27.00;101456.97;5002910;28;98104;-79
2022/06/05 11:04:17;;;;;;;;;;;;;;;28.96;27.38;101460.72;5005139;28;96858;-79
2022/06/05 11:06:46;;;;;;;;;;;;;;;28.25;28.63;101452.47;5000317;28;98756;-80
2022/06/05 11:09:16;;;;;;;;;;;;;;;28.55;27.77;101448.59;5004837;28;99365;-80
2022/06/05 11:14:39;;;;;;;;;;;;;;;28.72;28.00;101444.16;5021687;28;96994;-81
2022/06/05 11:17:12;;;;;;;;;;;;;;;28.94;27.85;101449.16;5026178;28;96929;-78
2022/06/05 11:19:44;;;;;;;;;;;;;;;29.19;27.43;101442.91;5018202;28;99358;-80
2022/06/05 11:22:14;;;;;;;;;;;;;;;29.17;27.48;101438.63;5020641;28;98774;-82
2022/06/05 11:24:44;;;;;;;;;;;;;;;28.16;28.63;101433.53;5017350;28;96773;-81
2022/06/05 11:27:12;;;;;;;;;;;;;;;28.33;28.84;101430.84;5018380;27;97042;-79
2022/06/05 11:29:43;;;;;;;;;;;;;;;28.86;28.09;101432.75;5009853;28;99000;-79
2022/06/05 11:32:23;;;;;;;;;;;;;;;29.09;27.65;101422.22;5014354;28;99178;-80
2022/06/05 11:34:54;;;;;;;;;;;;;;;29.32;27.17;101401.66;5000457;28;96707;-79
2022/06/05 11:37:26;;;;;;;;;;;;;;;28.79;27.86;101404.47;5010690;28;97287;-80
2022/06/05 11:39:57;;;;;;;;;;;;;;;28.48;28.83;101410.28;5009195;28;99099;-79
2022/06/05 11:42:25;;;;;;;;;;;;;;;29.28;27.57;101403.84;5007466;28;99013;-81
2022/06/05 11:44:54;;;;;;;;;;;;;;;29.17;27.61;101392.38;5013221;28;96791;-80
2022/06/05 11:47:31;;;;;;;;;;;;;;;28.98;27.55;101384.41;5008434;28;98625;-80
2022/06/05 11:50:02;;;;;;;;;;;;;;;28.80;27.94;101379.84;5004552;28;98491;-79
2022/06/05 11:52:31;;;;;;;;;;;;;;;28.22;29.10;101373.13;5008795;28;100407;-79
2022/06/05 11:55:02;;;;;;;;;;;;;;;28.92;28.24;101366.84;5005386;28;98470;-80
2022/06/05 11:57:34;;;;;;;;;;;;;;;29.16;27.34;101367.03;5012013;28;96841;-79
2022/06/05 12:00:05;;;;;;;;;;;;;;;29.37;27.09;101358.50;5011444;28;99072;-78
2022/06/05 12:02:41;;;;;;;;;;;;;;;29.09;27.04;101355.06;5013678;28;98844;-79
2022/06/05 12:05:14;;;;;;;;;;;;;;;29.05;27.46;101350.97;5016982;28;96786;-82
2022/06/05 12:07:40;;;;;;;;;;;;;;;29.59;26.67;101338.03;5006038;28;97279;-79
2022/06/05 12:10:09;;;;;;;;;;;;;;;29.60;26.43;101326.97;5014742;28;97882;-80
2022/06/05 12:12:37;;;;;;;;;;;;;;;29.64;26.94;101322.91;5016004;28;97243;-79
2022/06/05 12:15:07;;;;;;;;;;;;;;;29.88;26.57;101321.28;5004188;28;96885;-79
2022/06/05 12:17:38;;;;;;;;;;;;;;;30.01;25.93;101313.50;5018076;28;96952;-79
2022/06/05 12:20:06;;;;;;;;;;;;;;;30.09;26.46;101311.69;5015951;28;100067;-80
2022/06/05 12:22:37;;;;;;;;;;;;;;;29.59;26.79;101303.50;5010604;28;99359;-80
2022/06/05 12:25:09;;;;;;;;;;;;;;;29.87;26.66;101306.81;5007733;28;96933;-78
2022/06/05 12:27:43;;;;;;;;;;;;;;;30.24;26.14;101302.84;5012404;28;96897;-80
2022/06/05 12:30:16;;;;;;;;;;;;;;;30.15;25.66;101301.97;5006562;28;97736;-78
2022/06/05 12:32:49;;;;;;;;;;;;;;;30.32;25.31;101303.72;5009482;28;98710;-80
2022/06/05 12:35:19;;;;;;;;;;;;;;;30.42;24.62;101301.66;5009736;28;97012;-80
2022/06/05 12:37:51;;;;;;;;;;;;;;;30.14;24.95;101286.63;5005032;28;96872;-79
2022/06/05 12:40:19;;;;;;;;;;;;;;;30.47;24.96;101282.06;5005829;28;98913;-80
2022/06/05 12:42:49;;;;;;;;;;;;;;;30.46;25.71;101286.66;5010374;28;98905;-79
2022/06/05 12:45:19;;;;;;;;;;;;;;;30.65;25.83;101277.34;5008148;28;96871;-79
2022/06/05 12:47:54;;;;;;;;;;;;;;;30.86;25.69;101269.44;5013298;28;97782;-81
2022/06/05 12:50:25;;;;;;;;;;;;;;;30.88;25.27;101272.00;5012860;28;98960;-79
2022/06/05 12:52:59;;;;;;;;;;;;;;;30.67;25.40;101269.81;5006908;28;99330;-78
2022/06/05 12:55:29;;;;;;;;;;;;;;;30.82;25.15;101273.53;5008269;28;96965;-79
2022/06/05 12:57:59;;;;;;;;;;;;;;;31.13;24.11;101262.75;5014532;28;97915;-79
2022/06/05 13:00:31;;;;;;;;;;;;;;;30.36;25.07;101256.00;5012800;28;99562;-79